createdAt,value
2019-04-26T00:00:49.227Z,3.93
2019-04-26T00:05:52.277Z,3.73
2019-04-26T00:11:01.512Z,3.77
2019-04-26T00:16:12.578Z,3.93
2019-04-26T00:21:14.955Z,3.40
2019-04-26T00:26:17.649Z,3.80
2019-04-26T00:31:21.317Z,3.60
2019-04-26T00:36:23.662Z,4.10
2019-04-26T00:41:26.722Z,4.60
2019-04-26T00:46:30.083Z,4.00
2019-04-26T00:51:33.461Z,4.60
2019-04-26T00:56:36.860Z,4.40
2019-04-26T01:01:42.572Z,4.40
2019-04-26T01:06:46.313Z,5.73
2019-04-26T01:11:48.730Z,5.60
2019-04-26T01:16:50.720Z,4.70
2019-04-26T01:21:58.067Z,5.10
2019-04-26T01:27:02.974Z,5.40
2019-04-26T01:32:08.745Z,4.90
2019-04-26T01:37:11.466Z,5.40
2019-04-26T01:42:22.340Z,5.87
2019-04-26T01:47:38.670Z,5.70
2019-04-26T01:52:43.291Z,6.10
2019-04-26T01:57:45.721Z,6.03
2019-04-26T02:02:54.805Z,6.17
2019-04-26T02:07:56.830Z,6.30
2019-04-26T02:12:59.289Z,6.00
2019-04-26T02:18:01.629Z,6.57
2019-04-26T02:23:15.063Z,6.77
2019-04-26T02:28:17.143Z,6.10
2019-04-26T02:33:19.870Z,7.23
2019-04-26T02:38:22.003Z,7.63
2019-04-26T02:43:27.865Z,7.57
2019-04-26T02:48:53.901Z,8.07
2019-04-26T02:54:16.988Z,7.73
2019-04-26T02:59:45.481Z,7.73
2019-04-26T03:04:51.043Z,8.33
2019-04-26T03:09:54.532Z,7.80
2019-04-26T03:15:15.942Z,8.13
2019-04-26T03:20:23.264Z,8.60
2019-04-26T03:25:54.239Z,9.60
2019-04-26T03:31:13.725Z,9.17
2019-04-26T03:36:49.531Z,9.17
2019-04-26T03:42:13.104Z,9.30
2019-04-26T03:47:19.148Z,9.53
2019-04-26T03:53:05.298Z,8.90
2019-04-26T03:58:13.293Z,9.90
2019-04-26T04:03:43.106Z,10.43
2019-04-26T04:08:53.946Z,10.20
2019-04-26T04:14:04.497Z,10.63
2019-04-26T04:19:18.025Z,10.13
2019-04-26T04:24:29.307Z,9.47
2019-04-26T04:30:00.116Z,10.33
2019-04-26T04:35:06.956Z,11.83
2019-04-26T04:40:27.201Z,11.60
2019-04-26T04:45:59.152Z,11.23
2019-04-26T04:51:31.649Z,10.97
2019-04-26T04:57:00.491Z,11.63
2019-04-26T05:02:36.691Z,10.10
2019-04-26T05:08:06.873Z,11.67
2019-04-26T05:13:38.736Z,11.37
2019-04-26T05:18:54.837Z,12.20
2019-04-26T05:24:36.113Z,12.77
2019-04-26T05:30:27.281Z,12.03
2019-04-26T05:36:07.943Z,12.20
2019-04-26T05:41:57.778Z,11.90
2019-04-26T05:47:18.151Z,13.40
2019-04-26T05:53:01.875Z,13.67
2019-04-26T06:04:21.834Z,13.67
2019-04-26T06:10:09.873Z,13.03
2019-04-26T06:15:31.513Z,12.13
2019-04-26T06:20:52.890Z,12.70
2019-04-26T06:26:42.829Z,13.00
2019-04-26T06:32:15.039Z,12.33
2019-04-26T06:37:36.116Z,11.73
2019-04-26T06:43:12.143Z,12.10
2019-04-26T06:49:07.694Z,11.17
2019-04-26T06:54:43.883Z,12.30
2019-04-26T07:00:10.674Z,11.07
2019-04-26T07:05:22.617Z,9.10
2019-04-26T07:11:21.537Z,10.20
2019-04-26T07:16:54.563Z,9.70
2019-04-26T07:22:35.545Z,8.50
2019-04-26T07:28:12.152Z,8.37
2019-04-26T07:33:45.550Z,8.60
2019-04-26T07:39:20.786Z,8.57
2019-04-26T07:45:18.402Z,9.00
2019-04-26T07:51:22.067Z,8.57
2019-04-26T07:56:56.457Z,8.27
2019-04-26T08:02:42.697Z,8.80
2019-04-26T08:07:54.403Z,8.03
2019-04-26T08:13:08.454Z,8.50
2019-04-26T08:18:21.389Z,9.00
2019-04-26T08:23:41.438Z,8.70
2019-04-26T08:28:42.867Z,10.03
2019-04-26T08:33:53.316Z,8.83
2019-04-26T08:38:59.396Z,8.57
2019-04-26T08:44:18.357Z,9.37
2019-04-26T08:49:28.888Z,8.50
2019-04-26T08:54:40.525Z,9.40
2019-04-26T08:59:50.541Z,7.97
2019-04-26T09:05:18.157Z,8.73
2019-04-26T09:10:25.313Z,7.87
2019-04-26T09:16:06.317Z,9.20
2019-04-26T09:21:09.324Z,8.07
2019-04-26T09:26:14.842Z,7.53
2019-04-26T09:31:35.002Z,7.67
2019-04-26T09:36:37.387Z,8.07
2019-04-26T09:41:39.779Z,8.17
2019-04-26T09:46:54.903Z,7.97
2019-04-26T09:51:57.360Z,7.57
2019-04-26T09:57:00.245Z,8.43
2019-04-26T10:02:04.168Z,6.93
2019-04-26T10:07:07.186Z,7.73
2019-04-26T10:12:21.347Z,7.80
2019-04-26T10:17:27.455Z,7.87
2019-04-26T10:22:32.356Z,7.97
2019-04-26T10:27:36.351Z,7.00
2019-04-26T10:32:39.487Z,6.53
2019-04-26T10:37:43.999Z,7.37
2019-04-26T10:42:47.256Z,7.07
2019-04-26T10:47:49.511Z,6.97
2019-04-26T10:52:59.110Z,7.70
2019-04-26T10:58:12.408Z,7.07
2019-04-26T11:03:15.254Z,7.70
2019-04-26T11:08:18.045Z,7.33
2019-04-26T11:13:20.865Z,7.70
2019-04-26T11:18:27.237Z,7.80
2019-04-26T11:23:27.451Z,8.37
2019-04-26T11:28:29.822Z,7.40
2019-04-26T11:33:44.386Z,7.20
2019-04-26T11:38:37.828Z,7.63
2019-04-26T11:43:40.044Z,7.63
2019-04-26T11:48:42.478Z,7.10
2019-04-26T11:53:46.027Z,6.90
2019-04-26T11:58:48.580Z,6.30
2019-04-26T12:04:09.812Z,5.80
2019-04-26T12:09:24.421Z,6.00
2019-04-26T12:14:29.504Z,5.63
2019-04-26T12:19:32.765Z,6.10
2019-04-26T12:24:36.030Z,5.40
2019-04-26T12:29:38.916Z,5.40
2019-04-26T12:34:41.961Z,5.57
2019-04-26T12:39:44.869Z,5.07
2019-04-26T12:44:58.288Z,4.93
2019-04-26T12:50:01.042Z,4.30
2019-04-26T12:55:03.736Z,4.30
2019-04-26T13:00:10.530Z,4.37
2019-04-26T13:05:14.518Z,4.27
2019-04-26T13:10:39.272Z,3.60
2019-04-26T13:16:15.755Z,3.23
2019-04-26T13:21:18.452Z,3.57
2019-04-26T13:26:20.687Z,3.10
2019-04-26T13:31:23.097Z,3.10
2019-04-26T13:36:29.173Z,2.80
2019-04-26T13:41:30.371Z,2.77
2019-04-26T13:46:52.259Z,2.83
2019-04-26T13:51:54.702Z,2.97
2019-04-26T13:56:57.291Z,2.90
2019-04-26T14:02:10.942Z,2.83
2019-04-26T14:07:06.212Z,2.47
2019-04-26T14:12:18.381Z,3.20
2019-04-26T14:17:13.393Z,2.93
2019-04-26T14:22:17.858Z,2.80
2019-04-26T14:27:24.822Z,2.97
2019-04-26T14:32:27.287Z,3.00
2019-04-26T14:37:30.753Z,2.90
2019-04-26T14:42:38.251Z,2.40
2019-04-26T14:47:47.154Z,2.53
2019-04-26T14:52:42.326Z,2.33
2019-04-26T14:57:46.865Z,2.43
2019-04-26T15:02:56.506Z,2.50
2019-04-26T15:07:59.452Z,2.40
2019-04-26T15:13:15.035Z,2.43
2019-04-26T15:18:09.039Z,2.40
2019-04-26T15:23:13.142Z,2.53
2019-04-26T15:28:15.563Z,2.60
2019-04-26T15:33:17.881Z,2.30
2019-04-26T15:38:21.227Z,3.00
2019-04-26T15:43:34.463Z,2.70
2019-04-26T15:48:54.090Z,2.90
2019-04-26T15:53:55.144Z,2.40
2019-04-26T15:58:58.403Z,2.40
2019-04-26T16:04:06.106Z,2.40
2019-04-26T16:09:07.893Z,2.67
2019-04-26T16:14:12.850Z,2.57
2019-04-26T16:19:15.599Z,2.00
2019-04-26T16:24:18.463Z,2.40
2019-04-26T16:29:42.410Z,2.70
2019-04-26T16:34:47.743Z,2.20
2019-04-26T16:39:50.224Z,2.37
2019-04-26T16:44:53.122Z,2.27
2019-04-26T16:50:01.124Z,2.10
2019-04-26T16:55:02.724Z,2.47
2019-04-26T17:00:05.842Z,2.30
2019-04-26T17:05:17.645Z,2.40
2019-04-26T17:10:20.169Z,2.50
2019-04-26T17:15:21.018Z,2.80
2019-04-26T17:20:23.943Z,2.40
2019-04-26T17:25:48.896Z,2.50
2019-04-26T17:30:53.069Z,2.37
2019-04-26T17:35:55.488Z,2.20
2019-04-26T17:40:58.339Z,2.40
2019-04-26T17:46:01.136Z,2.30
2019-04-26T17:51:04.100Z,2.60
2019-04-26T17:56:06.374Z,2.30
2019-04-26T18:01:09.380Z,2.23
2019-04-26T18:06:14.064Z,2.00
2019-04-26T18:11:20.043Z,2.40
2019-04-26T18:16:26.883Z,2.00
2019-04-26T18:21:44.765Z,2.20
2019-04-26T18:26:52.246Z,2.20
2019-04-26T18:31:53.648Z,2.40
2019-04-26T18:36:57.404Z,2.27
2019-04-26T18:42:02.972Z,2.40
2019-04-26T18:47:15.605Z,2.30
2019-04-26T18:52:19.350Z,2.57
2019-04-26T18:57:20.878Z,2.30
2019-04-26T19:02:24.869Z,2.30
2019-04-26T19:07:32.481Z,2.40
2019-04-26T19:12:32.532Z,2.60
2019-04-26T19:18:05.342Z,2.27
2019-04-26T19:23:09.781Z,2.83
2019-04-26T19:28:12.219Z,2.33
2019-04-26T19:33:17.054Z,2.73
2019-04-26T19:38:21.267Z,2.37
2019-04-26T19:43:32.575Z,2.50
2019-04-26T19:48:34.755Z,2.53
2019-04-26T19:53:47.339Z,2.40
2019-04-26T19:58:50.572Z,2.57
2019-04-26T20:03:55.247Z,3.30
2019-04-26T20:08:57.688Z,3.03
2019-04-26T20:14:01.129Z,3.47
2019-04-26T20:19:08.099Z,2.70
2019-04-26T20:24:09.893Z,2.63
2019-04-26T20:29:12.238Z,3.23
2019-04-26T20:34:18.139Z,3.13
2019-04-26T20:39:20.870Z,4.00
2019-04-26T20:44:28.863Z,4.50
2019-04-26T20:49:32.155Z,3.60
2019-04-26T20:54:35.864Z,4.53
2019-04-26T20:59:38.267Z,4.60
2019-04-26T21:04:44.246Z,4.30
2019-04-26T21:09:47.449Z,5.80
2019-04-26T21:14:51.709Z,4.07
2019-04-26T21:19:58.498Z,4.60
2019-04-26T21:25:04.972Z,4.80
2019-04-26T21:30:29.553Z,5.03
2019-04-26T21:35:36.965Z,5.30
2019-04-26T21:40:45.640Z,5.37
2019-04-26T21:45:47.875Z,4.87
2019-04-26T21:50:50.203Z,5.23
2019-04-26T21:55:54.637Z,5.60
2019-04-26T22:01:18.959Z,5.57
2019-04-26T22:06:26.887Z,6.27
2019-04-26T22:11:25.834Z,6.47
2019-04-26T22:16:37.949Z,6.93
2019-04-26T22:21:49.716Z,7.40
2019-04-26T22:26:53.237Z,7.60
2019-04-26T22:31:56.191Z,7.73
2019-04-26T22:37:01.891Z,7.87
2019-04-26T22:42:03.867Z,8.10
2019-04-26T22:47:16.988Z,7.80
2019-04-26T22:52:19.329Z,8.20
2019-04-26T22:57:23.230Z,7.83
2019-04-26T23:02:27.668Z,7.30
2019-04-26T23:07:33.059Z,7.70
2019-04-26T23:12:57.967Z,6.93
2019-04-26T23:18:21.403Z,6.00
2019-04-26T23:23:24.299Z,5.40
2019-04-26T23:28:27.700Z,4.60
2019-04-26T23:33:31.408Z,4.63
2019-04-26T23:38:37.369Z,5.20
2019-04-26T23:43:37.628Z,4.83
2019-04-26T23:48:42.742Z,6.17
2019-04-26T23:53:44.446Z,6.17
2019-04-26T23:58:46.616Z,6.90
